createdAt,value
2019-04-21T00:01:46.544Z,62.10
2019-04-21T00:04:24.851Z,62.54
2019-04-21T00:07:03.063Z,63.48
2019-04-21T00:09:42.323Z,63.98
2019-04-21T00:12:08.958Z,64.03
2019-04-21T00:14:31.601Z,63.60
2019-04-21T00:16:56.024Z,63.63
2019-04-21T00:19:40.806Z,63.59
2019-04-21T00:22:23.233Z,63.95
2019-04-21T00:24:58.368Z,64.10
2019-04-21T00:27:32.433Z,63.72
2019-04-21T00:30:08.731Z,63.81
2019-04-21T00:32:28.172Z,63.00
2019-04-21T00:34:56.601Z,62.64
2019-04-21T00:37:30.273Z,62.78
2019-04-21T00:40:09.429Z,62.70
2019-04-21T00:42:38.897Z,62.83
2019-04-21T00:45:09.821Z,63.53
2019-04-21T00:47:38.796Z,62.62
2019-04-21T00:50:19.098Z,62.55
2019-04-21T00:53:22.781Z,62.51
2019-04-21T00:55:56.170Z,63.66
2019-04-21T00:58:30.418Z,63.63
2019-04-21T01:00:57.048Z,63.71
2019-04-21T01:03:47.444Z,63.44
2019-04-21T01:05:57.606Z,63.55
2019-04-21T01:08:31.136Z,63.06
2019-04-21T01:10:57.024Z,63.28
2019-04-21T01:13:39.477Z,63.24
2019-04-21T01:16:10.141Z,62.73
2019-04-21T01:18:33.120Z,61.44
2019-04-21T01:20:45.468Z,61.97
2019-04-21T01:23:16.641Z,62.51
2019-04-21T01:26:05.225Z,63.22
2019-04-21T01:28:35.916Z,62.33
2019-04-21T01:31:11.119Z,63.69
2019-04-21T01:33:48.639Z,63.61
2019-04-21T01:36:11.343Z,63.98
2019-04-21T01:38:48.165Z,63.46
2019-04-21T01:41:21.284Z,63.52
2019-04-21T01:43:45.868Z,63.32
2019-04-21T01:46:15.270Z,64.04
2019-04-21T01:48:42.904Z,64.11
2019-04-21T01:51:18.364Z,64.80
2019-04-21T01:54:03.698Z,64.30
2019-04-21T01:56:46.463Z,64.00
2019-04-21T01:59:08.318Z,64.31
2019-04-21T02:01:57.538Z,65.52
2019-04-21T02:04:32.679Z,64.59
2019-04-21T02:06:59.968Z,64.16
2019-04-21T02:09:19.193Z,64.00
2019-04-21T02:12:05.832Z,64.35
2019-04-21T02:14:38.111Z,64.55
2019-04-21T02:16:59.639Z,65.24
2019-04-21T02:19:28.459Z,65.25
2019-04-21T02:21:54.296Z,65.51
2019-04-21T02:24:47.956Z,66.26
2019-04-21T02:27:07.613Z,66.69
2019-04-21T02:29:40.920Z,66.10
2019-04-21T02:35:06.380Z,66.04
2019-04-21T02:39:57.363Z,66.36
2019-04-21T02:42:32.934Z,66.88
2019-04-21T02:47:36.723Z,66.25
2019-04-21T02:55:02.684Z,66.07
2019-04-21T02:57:41.388Z,66.38
2019-04-21T03:06:25.149Z,66.62
2019-04-21T03:08:50.120Z,66.48
2019-04-21T03:11:17.415Z,66.02
2019-04-21T03:21:16.189Z,66.51
2019-04-21T03:26:28.313Z,66.97
2019-04-21T03:34:34.854Z,67.46
2019-04-21T03:41:30.537Z,67.95
2019-04-21T03:43:58.932Z,68.35
2019-04-21T03:46:37.349Z,67.59
2019-04-21T03:54:09.161Z,67.44
2019-04-21T04:01:58.406Z,66.87
2019-04-21T04:04:49.637Z,67.04
2019-04-21T04:10:22.394Z,67.74
2019-04-21T04:12:53.915Z,67.45
2019-04-21T04:17:48.225Z,67.03
2019-04-21T04:22:55.303Z,66.70
2019-04-21T04:25:43.050Z,66.53
2019-04-21T04:28:10.169Z,65.71
2019-04-21T04:30:33.963Z,65.26
2019-04-21T04:33:01.254Z,64.46
2019-04-21T04:35:49.055Z,64.76
2019-04-21T04:38:03.623Z,65.05
2019-04-21T04:40:51.770Z,65.46
2019-04-21T04:43:19.876Z,65.87
2019-04-21T04:46:11.392Z,64.35
2019-04-21T04:48:24.144Z,63.92
2019-04-21T04:50:55.407Z,63.48
2019-04-21T04:55:54.717Z,59.81
2019-04-21T04:58:38.933Z,59.69
2019-04-21T05:01:08.599Z,59.79
2019-04-21T05:03:47.302Z,59.82
2019-04-21T05:06:41.922Z,58.33
2019-04-21T05:11:46.072Z,56.69
2019-04-21T05:16:54.898Z,58.32
2019-04-21T05:21:39.008Z,58.53
2019-04-21T05:24:01.325Z,58.13
2019-04-21T05:26:36.086Z,58.12
2019-04-21T05:29:01.969Z,56.78
2019-04-21T05:31:56.942Z,56.77
2019-04-21T05:34:30.595Z,56.41
2019-04-21T05:37:20.203Z,55.24
2019-04-21T05:39:53.685Z,55.51
2019-04-21T05:42:23.626Z,54.31
2019-04-21T05:47:46.366Z,54.05
2019-04-21T05:50:16.750Z,53.70
2019-04-21T05:52:51.883Z,53.71
2019-04-21T05:58:03.942Z,53.04
2019-04-21T06:00:52.638Z,53.09
2019-04-21T06:03:09.885Z,53.15
2019-04-21T06:05:58.427Z,53.94
2019-04-21T06:08:13.692Z,54.24
2019-04-21T06:10:47.392Z,53.68
2019-04-21T06:13:22.799Z,52.39
2019-04-21T06:15:54.680Z,52.15
2019-04-21T06:18:20.332Z,52.16
2019-04-21T06:20:51.809Z,51.84
2019-04-21T06:23:19.834Z,51.93
2019-04-21T06:26:19.313Z,52.65
2019-04-21T06:28:30.567Z,52.66
2019-04-21T06:31:05.856Z,52.17
2019-04-21T06:33:32.294Z,51.87
2019-04-21T06:39:11.699Z,50.48
2019-04-21T06:41:38.029Z,50.68
2019-04-21T06:44:20.380Z,50.55
2019-04-21T06:46:40.850Z,50.08
2019-04-21T06:49:15.686Z,50.34
2019-04-21T06:51:43.607Z,50.47
2019-04-21T06:54:14.536Z,50.67
2019-04-21T06:56:47.847Z,50.72
2019-04-21T06:59:16.749Z,50.06
2019-04-21T07:01:54.744Z,49.86
2019-04-21T07:04:40.340Z,49.75
2019-04-21T07:06:57.460Z,48.16
2019-04-21T07:09:25.428Z,49.09
2019-04-21T07:11:52.841Z,49.87
2019-04-21T07:19:34.664Z,48.19
2019-04-21T07:22:09.024Z,43.46
2019-04-21T07:27:15.241Z,43.67
2019-04-21T07:29:39.582Z,42.30
2019-04-21T07:32:20.929Z,39.75
2019-04-21T07:34:38.329Z,35.02
2019-04-21T07:37:08.670Z,37.92
2019-04-21T07:39:40.772Z,38.29
2019-04-21T07:42:09.064Z,37.96
2019-04-21T07:44:37.812Z,36.50
2019-04-21T07:47:15.781Z,36.45
2019-04-21T07:49:53.102Z,36.14
2019-04-21T07:52:35.007Z,35.44
2019-04-21T07:55:12.666Z,34.57
2019-04-21T07:57:31.623Z,34.52
2019-04-21T08:00:16.066Z,34.21
2019-04-21T08:02:34.336Z,35.70
2019-04-21T08:05:13.051Z,36.54
2019-04-21T08:07:48.195Z,36.21
2019-04-21T08:10:13.519Z,35.23
2019-04-21T08:12:37.438Z,35.28
2019-04-21T08:17:41.424Z,31.36
2019-04-21T08:20:15.629Z,31.03
2019-04-21T08:30:25.785Z,27.73
2019-04-21T08:33:04.365Z,27.02
2019-04-21T08:35:48.703Z,25.16
2019-04-21T08:37:54.997Z,23.11
2019-04-21T08:40:31.673Z,21.58
2019-04-21T08:42:57.124Z,19.50
2019-04-21T08:45:40.458Z,16.31
2019-04-21T08:48:04.737Z,14.61
2019-04-21T08:50:31.011Z,13.89
2019-04-21T08:53:08.031Z,14.49
2019-04-21T08:56:12.298Z,14.72
2019-04-21T08:59:09.520Z,13.42
2019-04-21T09:02:04.257Z,13.02
2019-04-21T09:04:46.103Z,13.28
2019-04-21T09:07:13.159Z,12.65
2019-04-21T09:09:36.071Z,12.06
2019-04-21T09:12:04.311Z,10.31
2019-04-21T09:14:39.585Z,10.41
2019-04-21T09:17:06.590Z,10.20
2019-04-21T09:19:51.857Z,10.03
2019-04-21T09:22:13.224Z,9.93
2019-04-21T09:24:50.164Z,8.82
2019-04-21T09:27:15.417Z,8.39
2019-04-21T09:29:38.296Z,8.94
2019-04-21T09:32:01.928Z,8.58
2019-04-21T09:34:38.029Z,7.54
2019-04-21T09:37:15.353Z,8.03
2019-04-21T09:39:40.940Z,7.28
2019-04-21T09:42:06.660Z,6.05
2019-04-21T09:44:40.112Z,6.96
2019-04-21T09:47:09.196Z,6.99
2019-04-21T09:49:40.083Z,6.56
2019-04-21T09:52:18.572Z,6.66
2019-04-21T09:54:52.054Z,6.92
2019-04-21T09:57:25.324Z,5.25
2019-04-21T09:59:55.839Z,6.59
2019-04-21T10:02:30.460Z,6.08
2019-04-21T10:04:48.250Z,5.73
2019-04-21T10:07:26.364Z,6.33
2019-04-21T10:09:50.029Z,7.56
2019-04-21T10:12:19.978Z,8.43
2019-04-21T10:14:49.548Z,8.30
2019-04-21T10:17:27.566Z,8.51
2019-04-21T10:19:58.720Z,8.21
2019-04-21T10:22:28.878Z,8.91
2019-04-21T10:24:58.729Z,7.19
2019-04-21T10:27:29.485Z,8.12
2019-04-21T10:29:59.320Z,7.93
2019-04-21T10:32:30.100Z,8.71
2019-04-21T10:35:01.084Z,8.76
2019-04-21T10:37:42.745Z,8.34
2019-04-21T10:40:03.455Z,8.28
2019-04-21T10:42:33.518Z,9.32
2019-04-21T10:45:03.401Z,9.27
2019-04-21T10:47:32.943Z,9.73
2019-04-21T10:50:02.864Z,9.05
2019-04-21T10:52:50.989Z,9.52
2019-04-21T10:55:41.418Z,8.98
2019-04-21T10:58:24.584Z,8.80
2019-04-21T11:01:01.992Z,9.52
2019-04-21T11:03:40.391Z,9.62
2019-04-21T11:06:10.857Z,8.95
2019-04-21T11:08:45.056Z,9.49
2019-04-21T11:11:12.261Z,9.91
2019-04-21T11:13:41.633Z,10.71
2019-04-21T11:16:11.500Z,10.31
2019-04-21T11:18:42.103Z,10.19
2019-04-21T11:21:13.111Z,9.62
2019-04-21T11:23:43.862Z,10.21
2019-04-21T11:26:14.059Z,10.84
2019-04-21T11:28:45.080Z,10.21
2019-04-21T11:31:15.366Z,11.44
2019-04-21T11:33:45.416Z,13.39
2019-04-21T11:36:15.665Z,14.00
2019-04-21T11:39:27.215Z,14.21
2019-04-21T11:41:45.752Z,15.06
2019-04-21T11:44:16.312Z,14.80
2019-04-21T11:46:46.658Z,17.36
2019-04-21T11:49:16.366Z,16.72
2019-04-21T11:51:46.947Z,16.80
2019-04-21T11:54:17.113Z,16.89
2019-04-21T11:56:46.814Z,16.59
2019-04-21T11:59:17.504Z,16.24
2019-04-21T12:01:47.610Z,16.07
2019-04-21T12:04:17.982Z,15.68
2019-04-21T12:06:49.525Z,15.89
2019-04-21T12:09:19.322Z,16.00
2019-04-21T12:11:49.412Z,15.32
2019-04-21T12:14:19.886Z,13.93
2019-04-21T12:16:50.869Z,13.48
2019-04-21T12:19:20.889Z,13.19
2019-04-21T12:22:02.872Z,12.57
2019-04-21T12:24:22.094Z,11.27
2019-04-21T12:26:51.931Z,10.86
2019-04-21T12:29:24.753Z,10.64
2019-04-21T12:32:12.418Z,10.10
2019-04-21T12:34:42.047Z,9.47
2019-04-21T12:37:13.039Z,8.93
2019-04-21T12:39:43.093Z,8.71
2019-04-21T12:42:12.508Z,8.47
2019-04-21T12:44:43.348Z,8.56
2019-04-21T12:47:14.063Z,8.11
2019-04-21T12:49:43.997Z,8.08
2019-04-21T12:52:13.659Z,8.53
2019-04-21T12:54:43.917Z,7.69
2019-04-21T12:57:13.930Z,8.21
2019-04-21T12:59:44.659Z,8.26
2019-04-21T13:02:15.939Z,7.72
2019-04-21T13:04:46.186Z,8.78
2019-04-21T13:07:15.639Z,11.33
2019-04-21T13:09:46.335Z,10.62
2019-04-21T13:12:17.203Z,11.27
2019-04-21T13:14:47.468Z,10.72
2019-04-21T13:17:17.350Z,10.70
2019-04-21T13:19:47.330Z,10.16
2019-04-21T13:22:18.365Z,9.58
2019-04-21T13:24:49.570Z,10.52
2019-04-21T13:27:20.653Z,10.36
2019-04-21T13:29:50.536Z,11.10
2019-04-21T13:32:20.503Z,12.63
2019-04-21T13:34:50.953Z,14.07
2019-04-21T13:37:21.478Z,14.95
2019-04-21T13:40:32.513Z,15.87
2019-04-21T13:42:46.683Z,15.45
2019-04-21T13:45:14.087Z,15.13
2019-04-21T13:47:43.818Z,15.32
2019-04-21T13:50:15.305Z,16.21
2019-04-21T13:52:45.245Z,16.54
2019-04-21T13:55:15.853Z,17.36
2019-04-21T13:57:46.439Z,17.63
2019-04-21T14:00:17.243Z,17.84
2019-04-21T14:02:47.174Z,17.45
2019-04-21T14:05:18.144Z,15.87
2019-04-21T14:07:48.184Z,17.24
2019-04-21T14:10:18.065Z,17.33
2019-04-21T14:12:48.926Z,18.19
2019-04-21T14:15:20.355Z,18.16
2019-04-21T14:17:50.897Z,17.80
2019-04-21T14:20:21.592Z,18.37
2019-04-21T14:22:51.929Z,19.87
2019-04-21T14:25:21.715Z,20.45
2019-04-21T14:27:52.576Z,20.38
2019-04-21T14:30:23.547Z,19.97
2019-04-21T14:32:54.077Z,19.40
2019-04-21T14:35:25.028Z,20.06
2019-04-21T14:37:54.726Z,21.30
2019-04-21T14:40:27.642Z,20.34
2019-04-21T14:42:56.200Z,20.69
2019-04-21T14:45:57.156Z,21.52
2019-04-21T14:48:45.282Z,22.68
2019-04-21T14:51:34.911Z,22.71
2019-04-21T14:54:18.482Z,23.01
2019-04-21T14:56:49.257Z,22.78
2019-04-21T15:01:46.359Z,22.89
2019-04-21T15:04:17.675Z,21.10
2019-04-21T15:06:47.688Z,22.01
2019-04-21T15:09:17.238Z,22.62
2019-04-21T15:11:47.707Z,22.54
2019-04-21T15:14:17.893Z,22.30
2019-04-21T15:16:47.542Z,22.87
2019-04-21T15:19:17.216Z,23.06
2019-04-21T15:21:48.116Z,21.42
2019-04-21T15:24:18.367Z,22.80
2019-04-21T15:26:49.235Z,24.00
2019-04-21T15:29:20.418Z,22.20
2019-04-21T15:31:50.619Z,22.08
2019-04-21T15:34:22.527Z,21.82
2019-04-21T15:36:52.398Z,22.75
2019-04-21T15:39:23.528Z,23.46
2019-04-21T15:41:54.555Z,23.67
2019-04-21T15:44:24.826Z,23.65
2019-04-21T15:46:55.650Z,24.02
2019-04-21T15:49:40.567Z,24.31
2019-04-21T15:52:01.937Z,24.27
2019-04-21T15:54:32.409Z,24.76
2019-04-21T15:57:11.180Z,24.93
2019-04-21T15:59:55.517Z,24.67
2019-04-21T16:02:38.765Z,25.19
2019-04-21T16:05:10.877Z,24.87
2019-04-21T16:07:40.530Z,26.18
2019-04-21T16:10:14.472Z,25.69
2019-04-21T16:12:43.682Z,25.22
2019-04-21T16:15:14.571Z,25.88
2019-04-21T16:17:45.544Z,26.23
2019-04-21T16:20:15.832Z,26.26
2019-04-21T16:22:46.458Z,26.45
2019-04-21T16:25:17.034Z,26.43
2019-04-21T16:27:47.641Z,26.83
2019-04-21T16:30:17.692Z,27.73
2019-04-21T16:32:48.266Z,28.22
2019-04-21T16:35:20.519Z,28.99
2019-04-21T16:37:50.189Z,28.98
2019-04-21T16:40:21.264Z,29.71
2019-04-21T16:42:52.147Z,30.67
2019-04-21T16:45:25.091Z,30.29
2019-04-21T16:47:56.001Z,30.90
2019-04-21T16:50:27.950Z,32.85
2019-04-21T16:53:10.175Z,32.67
2019-04-21T16:56:04.942Z,30.75
2019-04-21T16:58:44.979Z,31.51
2019-04-21T17:01:25.705Z,33.76
2019-04-21T17:03:55.249Z,33.98
2019-04-21T17:06:24.983Z,34.55
2019-04-21T17:08:54.757Z,35.02
2019-04-21T17:11:29.281Z,35.37
2019-04-21T17:13:56.971Z,35.65
2019-04-21T17:16:51.466Z,35.82
2019-04-21T17:19:09.520Z,36.09
2019-04-21T17:21:30.725Z,36.09
2019-04-21T17:24:02.111Z,34.24
2019-04-21T17:26:34.522Z,34.58
2019-04-21T17:29:02.921Z,35.33
2019-04-21T17:31:32.511Z,36.09
2019-04-21T17:34:10.273Z,36.40
2019-04-21T17:36:34.914Z,36.88
2019-04-21T17:39:06.888Z,37.08
2019-04-21T17:41:42.467Z,37.00
2019-04-21T17:44:09.028Z,37.18
2019-04-21T17:46:46.602Z,35.52
2019-04-21T17:49:10.900Z,35.04
2019-04-21T17:52:03.964Z,32.66
2019-04-21T17:54:42.849Z,32.15
2019-04-21T17:57:29.226Z,32.48
2019-04-21T18:00:11.437Z,32.77
2019-04-21T18:02:38.599Z,31.48
2019-04-21T18:05:13.330Z,31.29
2019-04-21T18:07:34.973Z,30.93
2019-04-21T18:10:19.322Z,31.20
2019-04-21T18:12:33.796Z,32.20
2019-04-21T18:15:00.229Z,31.48
2019-04-21T18:17:22.666Z,31.39
2019-04-21T18:19:55.133Z,31.29
2019-04-21T18:22:45.484Z,31.29
2019-04-21T18:25:28.159Z,31.43
2019-04-21T18:27:48.733Z,31.20
2019-04-21T18:30:44.688Z,31.94
2019-04-21T18:33:22.284Z,30.95
2019-04-21T18:36:20.159Z,31.55
2019-04-21T18:39:10.043Z,31.57
2019-04-21T18:41:30.298Z,31.67
2019-04-21T18:44:34.521Z,31.70
2019-04-21T18:47:03.681Z,31.70
2019-04-21T18:49:21.098Z,31.71
2019-04-21T18:52:08.077Z,31.48
2019-04-21T18:54:53.667Z,31.79
2019-04-21T18:57:10.736Z,31.64
2019-04-21T18:59:39.612Z,31.95
2019-04-21T19:02:09.877Z,32.08
2019-04-21T19:04:39.060Z,31.67
2019-04-21T19:07:21.075Z,31.96
2019-04-21T19:12:42.375Z,31.66
2019-04-21T19:15:00.615Z,31.99
2019-04-21T19:17:58.086Z,31.54
2019-04-21T19:20:12.953Z,31.50
2019-04-21T19:22:40.106Z,31.25
2019-04-21T19:25:05.091Z,31.56
2019-04-21T19:27:36.548Z,31.60
2019-04-21T19:30:13.517Z,31.83
2019-04-21T19:32:43.373Z,31.54
2019-04-21T19:34:59.452Z,31.74
2019-04-21T19:37:28.234Z,31.54
2019-04-21T19:40:09.533Z,31.65
2019-04-21T19:42:37.975Z,31.67
2019-04-21T19:45:17.580Z,31.43
2019-04-21T19:47:48.874Z,31.95
2019-04-21T19:50:26.165Z,31.83
2019-04-21T19:52:44.035Z,31.99
2019-04-21T19:57:47.059Z,31.43
2019-04-21T20:00:17.479Z,31.74
2019-04-21T20:02:48.629Z,31.71
2019-04-21T20:05:28.223Z,31.88
2019-04-21T20:08:06.551Z,32.01
2019-04-21T20:10:39.520Z,32.32
2019-04-21T20:13:14.641Z,32.26
2019-04-21T20:15:46.686Z,32.77
2019-04-21T20:18:07.078Z,32.68
2019-04-21T20:20:26.973Z,34.09
2019-04-21T20:22:57.504Z,35.03
2019-04-21T20:25:29.028Z,35.02
2019-04-21T20:28:07.191Z,35.62
2019-04-21T20:30:49.074Z,36.89
2019-04-21T20:33:45.742Z,37.43
2019-04-21T20:35:55.892Z,38.05
2019-04-21T20:38:19.230Z,38.71
2019-04-21T20:40:45.888Z,38.73
2019-04-21T20:43:25.168Z,39.53
2019-04-21T20:46:00.348Z,39.07
2019-04-21T20:48:21.021Z,39.26
2019-04-21T20:51:00.614Z,40.47
2019-04-21T20:53:33.055Z,41.20
2019-04-21T20:55:57.661Z,42.22
2019-04-21T20:58:34.798Z,42.98
2019-04-21T21:01:20.270Z,42.93
2019-04-21T21:03:34.895Z,43.41
2019-04-21T21:06:02.253Z,44.02
2019-04-21T21:08:39.950Z,44.25
2019-04-21T21:11:07.033Z,43.43
2019-04-21T21:13:44.402Z,43.10
2019-04-21T21:21:15.613Z,43.73
2019-04-21T21:23:47.780Z,43.88
2019-04-21T21:26:21.879Z,45.08
2019-04-21T21:28:42.998Z,44.90
2019-04-21T21:31:25.148Z,44.04
2019-04-21T21:34:08.237Z,43.86
2019-04-21T21:36:25.210Z,43.82
2019-04-21T21:38:55.989Z,44.41
2019-04-21T21:41:18.959Z,44.22
2019-04-21T21:43:44.786Z,44.86
2019-04-21T21:46:32.492Z,45.50
2019-04-21T21:48:59.061Z,44.75
2019-04-21T21:51:29.035Z,45.50
2019-04-21T21:53:48.558Z,45.48
2019-04-21T21:56:18.480Z,46.09
2019-04-21T21:58:49.679Z,45.94
2019-04-21T22:01:21.765Z,46.48
2019-04-21T22:04:01.670Z,47.56
2019-04-21T22:06:29.216Z,48.49
2019-04-21T22:08:54.647Z,49.15
2019-04-21T22:11:24.206Z,49.46
2019-04-21T22:14:01.895Z,49.78
2019-04-21T22:16:41.139Z,50.39
2019-04-21T22:19:16.882Z,50.84
2019-04-21T22:21:47.594Z,50.62
2019-04-21T22:24:08.453Z,50.68
2019-04-21T22:26:31.284Z,50.87
2019-04-21T22:29:01.520Z,51.01
2019-04-21T22:31:34.183Z,51.42
2019-04-21T22:34:07.029Z,52.21
2019-04-21T22:36:47.208Z,52.80
2019-04-21T22:39:28.354Z,52.79
2019-04-21T22:41:46.687Z,53.07
2019-04-21T22:44:18.888Z,53.28
2019-04-21T22:46:59.995Z,53.60
2019-04-21T22:49:21.930Z,54.27
2019-04-21T22:51:52.465Z,53.63
2019-04-21T22:54:28.681Z,53.55
2019-04-21T22:57:02.684Z,53.11
2019-04-21T22:59:27.846Z,53.55
2019-04-21T23:01:57.733Z,53.35
2019-04-21T23:04:35.901Z,54.41
2019-04-21T23:07:02.829Z,53.34
2019-04-21T23:09:30.872Z,54.38
2019-04-21T23:12:02.793Z,55.13
2019-04-21T23:14:45.616Z,55.00
2019-04-21T23:17:23.930Z,55.13
2019-04-21T23:19:53.884Z,54.48
2019-04-21T23:22:27.969Z,54.99
2019-04-21T23:24:57.554Z,55.01
2019-04-21T23:27:23.986Z,55.49
2019-04-21T23:30:11.663Z,55.69
2019-04-21T23:32:23.567Z,56.60
2019-04-21T23:34:45.942Z,56.21
2019-04-21T23:37:20.264Z,55.85
2019-04-21T23:39:47.729Z,56.63
2019-04-21T23:42:23.695Z,56.16
2019-04-21T23:44:52.946Z,57.17
2019-04-21T23:47:37.352Z,57.20
2019-04-21T23:50:00.461Z,55.99
2019-04-21T23:52:23.827Z,56.08
2019-04-21T23:54:53.606Z,55.92
2019-04-21T23:57:31.782Z,56.78
2019-04-21T23:59:57.100Z,55.16
